Time;durP1;ratioP1;P1;durP2;ratioP2;P2;SDS_P1;SDS_P2;PMS_P1;PMS_P2;Temp;Humidity;BMP_temperature;BMP_pressure;BME280_temperature;BME280_humidity;BME280_pressure;Samples;Min_cycle;Max_cycle;Signal;HPM_P1;HPM_P2
2022/08/25 00:01:58;;;;;;;;;;;24.30;99.90;;;;;;5057886;28;19972;-77
2022/08/25 00:04:25;;;;;;;;;;;24.30;99.90;;;;;;5056696;28;20007;-72
2022/08/25 00:06:52;;;;;;;;;;;24.20;99.90;;;;;;5055980;28;19924;-77
2022/08/25 00:09:19;;;;;;;;;;;24.20;99.90;;;;;;5056724;28;19908;-72
2022/08/25 00:11:47;;;;;;;;;;;24.20;99.90;;;;;;5061936;28;19909;-77
2022/08/25 00:14:18;;;;;;;;;;;24.20;99.90;;;;;;5056079;28;20019;-77
2022/08/25 00:16:44;;;;;;;;;;;24.20;99.90;;;;;;5056378;28;19908;-76
2022/08/25 00:19:13;;;;;;;;;;;24.20;99.90;;;;;;5050865;28;20008;-76
2022/08/25 00:21:39;;;;;;;;;;;24.20;99.90;;;;;;5050585;28;19912;-72
2022/08/25 00:24:05;;;;;;;;;;;24.20;99.90;;;;;;5056078;28;20280;-72
2022/08/25 00:26:31;;;;;;;;;;;24.30;99.90;;;;;;5069270;28;19919;-76
2022/08/25 00:28:56;;;;;;;;;;;24.20;99.90;;;;;;5068438;28;20011;-76
2022/08/25 00:31:22;;;;;;;;;;;24.30;99.90;;;;;;5056075;28;19919;-76
2022/08/25 00:33:48;;;;;;;;;;;24.30;99.90;;;;;;5056141;28;19924;-72
2022/08/25 00:36:14;;;;;;;;;;;24.40;99.90;;;;;;5055742;28;19909;-76
2022/08/25 00:38:40;;;;;;;;;;;24.40;99.90;;;;;;5056022;28;20016;-77
2022/08/25 00:41:07;;;;;;;;;;;24.40;99.90;;;;;;5055709;28;19913;-76
2022/08/25 00:43:44;;;;;;;;;;;24.40;99.90;;;;;;5055899;28;19963;-72
2022/08/25 00:46:16;;;;;;;;;;;24.50;99.90;;;;;;5055621;28;19913;-76
2022/08/25 00:48:43;;;;;;;;;;;24.60;99.90;;;;;;5059314;28;20372;-72
2022/08/25 00:51:10;;;;;;;;;;;24.70;99.90;;;;;;5055770;28;19915;-76
2022/08/25 00:53:36;;;;;;;;;;;24.70;99.90;;;;;;5055330;28;19913;-77
2022/08/25 00:56:02;;;;;;;;;;;24.80;99.90;;;;;;5055487;28;19909;-72
2022/08/25 00:58:29;;;;;;;;;;;24.80;99.90;;;;;;5055364;28;19908;-77
2022/08/25 01:00:56;;;;;;;;;;;24.80;99.90;;;;;;5055877;28;20376;-72
2022/08/25 01:03:23;;;;;;;;;;;24.80;99.90;;;;;;5055926;28;19909;-77
2022/08/25 01:05:49;;;;;;;;;;;24.70;99.90;;;;;;5055693;28;19959;-72
2022/08/25 01:08:21;;;;;;;;;;;24.70;99.90;;;;;;5054945;28;19909;-77
2022/08/25 01:10:48;;;;;;;;;;;24.60;99.90;;;;;;5060518;28;19920;-72
2022/08/25 01:13:17;;;;;;;;;;;24.60;99.90;;;;;;5055074;28;19909;-71
2022/08/25 01:15:44;;;;;;;;;;;24.60;99.90;;;;;;5055459;28;20364;-72
2022/08/25 01:18:10;;;;;;;;;;;24.60;99.90;;;;;;5055168;28;19917;-76
2022/08/25 01:20:36;;;;;;;;;;;24.50;99.90;;;;;;5047501;28;19915;-77
2022/08/25 01:23:01;;;;;;;;;;;24.40;99.90;;;;;;5054929;28;19908;-77
2022/08/25 01:25:59;;;;;;;;;;;24.40;99.90;;;;;;5055166;28;19909;-72
2022/08/25 01:28:25;;;;;;;;;;;24.30;99.90;;;;;;5051946;28;20276;-71
2022/08/25 01:30:51;;;;;;;;;;;24.30;99.90;;;;;;5054972;28;19939;-76
2022/08/25 01:33:17;;;;;;;;;;;24.20;99.90;;;;;;5054907;28;19909;-77
2022/08/25 01:35:42;;;;;;;;;;;24.20;99.90;;;;;;5054947;28;19915;-76
2022/08/25 01:38:08;;;;;;;;;;;24.20;99.90;;;;;;5054764;28;19924;-77
2022/08/25 01:40:34;;;;;;;;;;;24.20;99.90;;;;;;5054901;28;20295;-72
2022/08/25 01:43:06;;;;;;;;;;;24.20;99.90;;;;;;5057512;28;20274;-76
2022/08/25 01:45:33;;;;;;;;;;;24.20;99.90;;;;;;5060487;28;19909;-76
2022/08/25 01:47:59;;;;;;;;;;;24.20;99.90;;;;;;5058526;28;20351;-76
2022/08/25 01:50:24;;;;;;;;;;;24.20;99.90;;;;;;5054823;28;20071;-77
2022/08/25 01:52:55;;;;;;;;;;;24.20;99.90;;;;;;5054807;28;19913;-72
2022/08/25 01:55:21;;;;;;;;;;;24.10;99.90;;;;;;5054554;28;19960;-71
2022/08/25 01:57:47;;;;;;;;;;;24.20;99.90;;;;;;5049057;28;19916;-77
2022/08/25 02:00:13;;;;;;;;;;;24.10;99.90;;;;;;5054522;28;19909;-76
2022/08/25 02:02:41;;;;;;;;;;;24.10;99.90;;;;;;5063581;28;19908;-77
2022/08/25 02:05:07;;;;;;;;;;;23.90;99.90;;;;;;5053515;28;19932;-76
2022/08/25 02:07:33;;;;;;;;;;;23.70;99.90;;;;;;5054250;28;19915;-71
2022/08/25 02:09:58;;;;;;;;;;;23.70;99.90;;;;;;5060677;28;19909;-77
2022/08/25 02:12:24;;;;;;;;;;;23.60;99.90;;;;;;5054593;28;19963;-77
2022/08/25 02:14:49;;;;;;;;;;;23.50;99.90;;;;;;5054177;28;19935;-76
2022/08/25 02:17:16;;;;;;;;;;;23.50;99.90;;;;;;5053731;28;19909;-76
2022/08/25 02:19:41;;;;;;;;;;;23.50;99.90;;;;;;5052726;28;19912;-72
2022/08/25 02:22:07;;;;;;;;;;;23.50;99.90;;;;;;5052050;28;20328;-77
2022/08/25 02:24:33;;;;;;;;;;;23.50;99.90;;;;;;5053939;28;20394;-72
2022/08/25 02:26:59;;;;;;;;;;;23.50;99.90;;;;;;5054144;28;20279;-77
2022/08/25 02:29:25;;;;;;;;;;;23.50;99.90;;;;;;5053481;28;19916;-77
2022/08/25 02:31:50;;;;;;;;;;;23.50;99.90;;;;;;5053918;28;20006;-72
2022/08/25 02:34:16;;;;;;;;;;;23.50;99.90;;;;;;5042874;28;19924;-71
2022/08/25 02:36:42;;;;;;;;;;;23.50;99.90;;;;;;5033565;28;19981;-77
2022/08/25 02:39:08;;;;;;;;;;;23.50;99.90;;;;;;5044881;28;19908;-72
2022/08/25 02:41:34;;;;;;;;;;;23.60;99.90;;;;;;5049802;28;19917;-77
2022/08/25 02:44:00;;;;;;;;;;;23.50;99.90;;;;;;5032302;28;19959;-71
2022/08/25 02:46:26;;;;;;;;;;;23.60;99.90;;;;;;5034001;28;19916;-72
2022/08/25 02:48:52;;;;;;;;;;;23.60;99.90;;;;;;5062897;28;20321;-72
2022/08/25 02:51:18;;;;;;;;;;;23.60;99.90;;;;;;5073800;28;19908;-71
2022/08/25 02:53:45;;;;;;;;;;;23.50;99.90;;;;;;5073679;28;19939;-72
2022/08/25 02:56:12;;;;;;;;;;;23.50;99.90;;;;;;5073891;28;20272;-71
2022/08/25 02:58:37;;;;;;;;;;;23.50;99.90;;;;;;5057101;28;19913;-72
2022/08/25 03:01:04;;;;;;;;;;;23.50;99.90;;;;;;5057567;28;20265;-77
2022/08/25 03:03:29;;;;;;;;;;;23.40;99.90;;;;;;5058799;28;19916;-76
2022/08/25 03:05:56;;;;;;;;;;;23.40;99.90;;;;;;5053052;28;19909;-77
2022/08/25 03:08:22;;;;;;;;;;;23.40;99.90;;;;;;5053248;28;20264;-76
2022/08/25 03:10:47;;;;;;;;;;;23.40;99.90;;;;;;5056424;28;19924;-72
2022/08/25 03:13:13;;;;;;;;;;;23.40;99.90;;;;;;5052756;28;19909;-76
2022/08/25 03:15:40;;;;;;;;;;;23.40;99.90;;;;;;5053036;28;19919;-76
2022/08/25 03:18:06;;;;;;;;;;;23.30;99.90;;;;;;5053021;28;19909;-71
2022/08/25 03:20:34;;;;;;;;;;;23.30;99.90;;;;;;5052145;28;20062;-77
2022/08/25 03:23:01;;;;;;;;;;;23.20;99.90;;;;;;5052915;28;19912;-72
2022/08/25 03:28:10;;;;;;;;;;;23.20;99.90;;;;;;5065692;28;19966;-77
2022/08/25 03:30:36;;;;;;;;;;;23.10;99.90;;;;;;5053086;28;19929;-77
2022/08/25 03:33:02;;;;;;;;;;;23.10;99.90;;;;;;5052929;28;19958;-76
2022/08/25 03:35:27;;;;;;;;;;;23.20;99.90;;;;;;5052974;28;19913;-72
2022/08/25 03:37:56;;;;;;;;;;;23.20;99.90;;;;;;5053176;28;20283;-72
2022/08/25 03:40:22;;;;;;;;;;;23.20;99.90;;;;;;5053306;28;20367;-77
2022/08/25 03:42:48;;;;;;;;;;;23.10;99.90;;;;;;5052853;28;19975;-77
2022/08/25 03:45:15;;;;;;;;;;;23.10;99.90;;;;;;5052750;28;19909;-71
2022/08/25 03:47:41;;;;;;;;;;;23.10;99.90;;;;;;5056731;28;19912;-72
2022/08/25 03:50:07;;;;;;;;;;;23.10;99.90;;;;;;5060831;28;19916;-71
2022/08/25 03:52:33;;;;;;;;;;;23.00;99.90;;;;;;5058188;28;19915;-71
2022/08/25 03:54:59;;;;;;;;;;;23.10;99.90;;;;;;5052975;28;19912;-72
2022/08/25 03:57:25;;;;;;;;;;;23.20;99.90;;;;;;5052531;28;20287;-71
2022/08/25 03:59:51;;;;;;;;;;;23.40;99.90;;;;;;5052544;28;19913;-71
2022/08/25 04:02:17;;;;;;;;;;;23.60;99.90;;;;;;5052971;28;20431;-70
2022/08/25 04:04:42;;;;;;;;;;;23.40;99.90;;;;;;5052922;28;20007;-71
2022/08/25 04:07:08;;;;;;;;;;;23.00;99.90;;;;;;5052752;28;19913;-76
2022/08/25 04:09:34;;;;;;;;;;;22.70;99.90;;;;;;5046209;28;19910;-77
2022/08/25 04:12:00;;;;;;;;;;;22.40;99.90;;;;;;5056809;28;20522;-78
2022/08/25 04:14:25;;;;;;;;;;;22.20;99.90;;;;;;5052231;28;19913;-71
2022/08/25 04:16:51;;;;;;;;;;;22.00;99.90;;;;;;5052657;28;20310;-76
2022/08/25 04:19:17;;;;;;;;;;;21.80;99.90;;;;;;5051317;28;19931;-77
2022/08/25 04:21:43;;;;;;;;;;;21.80;99.90;;;;;;5041086;28;19909;-77
2022/08/25 04:24:09;;;;;;;;;;;21.50;99.90;;;;;;5052341;28;19955;-70
2022/08/25 04:26:37;;;;;;;;;;;21.40;99.90;;;;;;5052952;28;19916;-70
2022/08/25 04:29:03;;;;;;;;;;;21.30;99.90;;;;;;5056003;28;19917;-78
2022/08/25 04:31:29;;;;;;;;;;;21.10;99.90;;;;;;5054021;28;19964;-77
2022/08/25 04:33:55;;;;;;;;;;;21.00;99.90;;;;;;5055918;28;19928;-77
2022/08/25 04:36:21;;;;;;;;;;;20.90;99.90;;;;;;5055656;28;19917;-78
2022/08/25 04:38:48;;;;;;;;;;;20.90;99.90;;;;;;5055964;28;19912;-72
2022/08/25 04:41:15;;;;;;;;;;;20.80;99.90;;;;;;5055138;28;19917;-73
2022/08/25 04:43:42;;;;;;;;;;;20.70;99.90;;;;;;5055705;28;20300;-79
2022/08/25 04:46:12;;;;;;;;;;;20.70;99.90;;;;;;5055664;28;20451;-79
2022/08/25 04:48:38;;;;;;;;;;;20.60;99.90;;;;;;5059263;28;19909;-73
2022/08/25 04:51:09;;;;;;;;;;;20.60;99.90;;;;;;5055749;28;19962;-79
2022/08/25 04:53:35;;;;;;;;;;;20.50;99.90;;;;;;5065252;28;19958;-72
2022/08/25 04:56:04;;;;;;;;;;;20.50;99.90;;;;;;5058772;28;20080;-79
2022/08/25 04:58:29;;;;;;;;;;;20.60;99.90;;;;;;5055347;28;19909;-72
2022/08/25 05:01:00;;;;;;;;;;;20.60;99.90;;;;;;5058620;28;20372;-80
2022/08/25 05:03:26;;;;;;;;;;;20.50;99.90;;;;;;5064848;28;19909;-74
2022/08/25 05:05:51;;;;;;;;;;;20.50;99.90;;;;;;5054484;28;19916;-74
2022/08/25 05:08:17;;;;;;;;;;;20.50;99.90;;;;;;5054724;28;19962;-73
2022/08/25 05:10:42;;;;;;;;;;;20.50;99.90;;;;;;5063122;28;19909;-80
2022/08/25 05:13:08;;;;;;;;;;;20.50;99.90;;;;;;5054319;28;20372;-81
2022/08/25 05:15:51;;;;;;;;;;;20.50;99.90;;;;;;5053887;28;19912;-74
2022/08/25 05:18:18;;;;;;;;;;;20.50;99.90;;;;;;5055115;28;20295;-74
2022/08/25 05:20:43;;;;;;;;;;;20.50;99.90;;;;;;5050526;28;20276;-74
2022/08/25 05:23:09;;;;;;;;;;;20.50;99.90;;;;;;5048423;28;19916;-73
2022/08/25 05:25:34;;;;;;;;;;;20.50;99.90;;;;;;5055744;28;19975;-73
2022/08/25 05:28:00;;;;;;;;;;;20.50;99.90;;;;;;5067381;28;20375;-73
2022/08/25 05:30:26;;;;;;;;;;;20.50;99.90;;;;;;5054224;28;20299;-79
2022/08/25 05:32:51;;;;;;;;;;;20.50;99.90;;;;;;5054921;28;20355;-72
2022/08/25 05:35:18;;;;;;;;;;;20.50;99.90;;;;;;5052445;28;19912;-72
2022/08/25 05:37:44;;;;;;;;;;;20.50;99.90;;;;;;5051566;28;19917;-79
2022/08/25 05:40:09;;;;;;;;;;;20.50;99.90;;;;;;5053184;28;20380;-79
2022/08/25 05:42:35;;;;;;;;;;;20.60;99.90;;;;;;5045182;28;19909;-78
2022/08/25 05:45:01;;;;;;;;;;;20.60;99.90;;;;;;5051715;28;19920;-72
2022/08/25 05:47:27;;;;;;;;;;;20.60;99.90;;;;;;5057594;28;20337;-78
2022/08/25 05:49:53;;;;;;;;;;;20.60;99.90;;;;;;5054639;28;19908;-79
2022/08/25 05:52:19;;;;;;;;;;;20.70;99.90;;;;;;5053759;28;20359;-78
2022/08/25 05:54:44;;;;;;;;;;;20.70;99.90;;;;;;5053802;28;19920;-72
2022/08/25 05:57:10;;;;;;;;;;;20.80;99.90;;;;;;5053767;28;20356;-77
2022/08/25 05:59:35;;;;;;;;;;;20.80;99.90;;;;;;5055213;28;19908;-72
2022/08/25 06:04:45;;;;;;;;;;;20.80;99.90;;;;;;5050799;28;19920;-79
2022/08/25 06:07:11;;;;;;;;;;;20.90;99.90;;;;;;5053420;28;20298;-78
2022/08/25 06:09:37;;;;;;;;;;;20.90;99.90;;;;;;5053906;28;19912;-77
2022/08/25 06:12:03;;;;;;;;;;;21.00;99.90;;;;;;5052117;28;20326;-72
2022/08/25 06:14:28;;;;;;;;;;;21.00;99.90;;;;;;5045489;28;19917;-71
2022/08/25 06:16:54;;;;;;;;;;;21.00;99.90;;;;;;5049848;28;19913;-72
2022/08/25 06:19:21;;;;;;;;;;;21.00;99.90;;;;;;5050943;28;19920;-77
2022/08/25 06:21:48;;;;;;;;;;;21.00;99.90;;;;;;5053627;28;19920;-78
2022/08/25 06:24:13;;;;;;;;;;;21.00;99.90;;;;;;5052342;28;19916;-78
2022/08/25 06:26:39;;;;;;;;;;;21.00;99.90;;;;;;5067713;28;20370;-70
2022/08/25 06:29:04;;;;;;;;;;;21.00;99.90;;;;;;5053517;28;19932;-78
2022/08/25 06:31:30;;;;;;;;;;;21.00;99.90;;;;;;5051283;28;20298;-78
2022/08/25 06:33:56;;;;;;;;;;;21.00;99.90;;;;;;5054500;28;19912;-78
2022/08/25 06:36:22;;;;;;;;;;;21.00;99.90;;;;;;5053112;28;20047;-70
2022/08/25 06:38:51;;;;;;;;;;;21.00;99.90;;;;;;5053140;28;20295;-71
2022/08/25 06:41:16;;;;;;;;;;;21.10;99.90;;;;;;5054306;28;19909;-72
2022/08/25 06:43:42;;;;;;;;;;;21.00;99.90;;;;;;5052333;28;19913;-75
2022/08/25 06:46:12;;;;;;;;;;;21.10;99.90;;;;;;5062055;28;20294;-79
2022/08/25 06:48:37;;;;;;;;;;;21.10;99.90;;;;;;5052892;28;20110;-79
2022/08/25 06:51:07;;;;;;;;;;;21.10;99.90;;;;;;5049677;28;20412;-72
2022/08/25 06:53:33;;;;;;;;;;;21.00;99.90;;;;;;5057402;28;19908;-72
2022/08/25 06:55:59;;;;;;;;;;;21.10;99.90;;;;;;5057482;28;20269;-77
2022/08/25 06:58:24;;;;;;;;;;;21.00;99.90;;;;;;5054475;28;19916;-72
2022/08/25 07:00:50;;;;;;;;;;;21.10;99.90;;;;;;5052298;28;20409;-71
2022/08/25 07:03:16;;;;;;;;;;;21.10;99.90;;;;;;5047542;28;20443;-72
2022/08/25 07:05:48;;;;;;;;;;;21.10;99.90;;;;;;5054115;28;19921;-72
2022/08/25 07:08:14;;;;;;;;;;;21.20;99.90;;;;;;5047986;28;19970;-76
2022/08/25 07:10:39;;;;;;;;;;;21.20;99.90;;;;;;5056038;28;19909;-77
2022/08/25 07:13:05;;;;;;;;;;;21.20;99.90;;;;;;5059563;28;20434;-72
2022/08/25 07:15:30;;;;;;;;;;;21.30;99.90;;;;;;5056551;28;19925;-72
2022/08/25 07:17:56;;;;;;;;;;;21.30;99.90;;;;;;5046636;28;20283;-72
2022/08/25 07:20:21;;;;;;;;;;;21.30;99.90;;;;;;5059780;28;19913;-72
2022/08/25 07:22:47;;;;;;;;;;;21.40;99.90;;;;;;5050398;28;19943;-76
2022/08/25 07:25:12;;;;;;;;;;;21.40;99.90;;;;;;5057030;28;19959;-76
2022/08/25 07:27:38;;;;;;;;;;;21.50;99.90;;;;;;5058232;28;19909;-72
2022/08/25 07:30:05;;;;;;;;;;;21.50;99.90;;;;;;5046641;28;19925;-73
2022/08/25 07:32:30;;;;;;;;;;;21.60;99.90;;;;;;5041933;28;20581;-73
2022/08/25 07:35:14;;;;;;;;;;;21.50;99.90;;;;;;5055096;28;20485;-77
2022/08/25 07:37:41;;;;;;;;;;;21.50;99.90;;;;;;5044191;28;19970;-76
2022/08/25 07:40:07;;;;;;;;;;;21.60;99.90;;;;;;5052960;28;19959;-75
2022/08/25 07:42:34;;;;;;;;;;;21.50;99.90;;;;;;5042126;28;19924;-72
2022/08/25 07:45:00;;;;;;;;;;;21.50;99.90;;;;;;5045260;28;19917;-73
2022/08/25 07:47:25;;;;;;;;;;;21.50;99.90;;;;;;5051460;28;19928;-78
2022/08/25 07:49:51;;;;;;;;;;;21.40;99.90;;;;;;5047066;28;20478;-71
2022/08/25 07:52:16;;;;;;;;;;;21.40;99.90;;;;;;5048281;28;19912;-76
2022/08/25 07:54:42;;;;;;;;;;;21.40;99.90;;;;;;5058511;28;19936;-72
2022/08/25 07:57:08;;;;;;;;;;;21.40;99.90;;;;;;5049374;28;20013;-71
2022/08/25 07:59:34;;;;;;;;;;;21.40;99.90;;;;;;5047282;28;20315;-78
2022/08/25 08:02:00;;;;;;;;;;;21.40;99.90;;;;;;5050832;28;19920;-78
2022/08/25 08:04:25;;;;;;;;;;;21.40;99.90;;;;;;5052572;28;19916;-71
2022/08/25 08:06:51;;;;;;;;;;;21.40;99.90;;;;;;5054914;28;20395;-76
2022/08/25 08:09:17;;;;;;;;;;;21.50;99.90;;;;;;5045647;28;20054;-72
2022/08/25 08:11:43;;;;;;;;;;;21.50;99.90;;;;;;5056138;28;19913;-74
2022/08/25 08:14:10;;;;;;;;;;;21.60;99.90;;;;;;5058649;28;20330;-78
2022/08/25 08:16:36;;;;;;;;;;;21.70;99.90;;;;;;5053774;28;19974;-77
2022/08/25 08:19:02;;;;;;;;;;;21.90;99.90;;;;;;5048994;28;20303;-74
2022/08/25 08:21:32;;;;;;;;;;;22.00;99.90;;;;;;5050433;28;19935;-74
2022/08/25 08:23:58;;;;;;;;;;;22.10;99.90;;;;;;5054894;28;19923;-74
2022/08/25 08:26:24;;;;;;;;;;;22.20;99.90;;;;;;5057021;28;19913;-78
2022/08/25 08:28:50;;;;;;;;;;;22.30;99.90;;;;;;5053086;28;19919;-78
2022/08/25 08:31:18;;;;;;;;;;;22.40;99.90;;;;;;5052858;28;19935;-78
2022/08/25 08:33:45;;;;;;;;;;;22.40;99.90;;;;;;5052974;28;19912;-74
2022/08/25 08:36:11;;;;;;;;;;;22.50;99.90;;;;;;5051724;28;19917;-74
2022/08/25 08:38:38;;;;;;;;;;;22.50;99.90;;;;;;5046771;28;19913;-74
2022/08/25 08:43:53;;;;;;;;;;;22.50;99.90;;;;;;5047726;28;19967;-79
2022/08/25 08:46:21;;;;;;;;;;;22.50;99.90;;;;;;5045513;28;19921;-80
2022/08/25 08:49:05;;;;;;;;;;;22.50;99.90;;;;;;5054118;28;20362;-79
2022/08/25 08:51:34;;;;;;;;;;;22.50;99.90;;;;;;5051875;28;20375;-74
2022/08/25 08:54:07;;;;;;;;;;;22.50;99.90;;;;;;5050336;28;19920;-74
2022/08/25 08:56:39;;;;;;;;;;;22.50;99.90;;;;;;5046771;28;19947;-77
2022/08/25 08:59:08;;;;;;;;;;;22.50;99.90;;;;;;5054952;28;19920;-77
2022/08/25 09:01:41;;;;;;;;;;;22.60;99.90;;;;;;5059164;28;19913;-74
2022/08/25 09:04:42;;;;;;;;;;;22.60;99.90;;;;;;5054994;28;19912;-74
2022/08/25 09:07:22;;;;;;;;;;;22.60;99.90;;;;;;5030743;28;20453;-78
2022/08/25 09:09:49;;;;;;;;;;;22.70;99.90;;;;;;5053374;28;19995;-78
2022/08/25 09:12:15;;;;;;;;;;;22.80;99.90;;;;;;5058000;28;19917;-79
2022/08/25 09:14:40;;;;;;;;;;;22.80;99.90;;;;;;5052482;28;19940;-73
2022/08/25 09:17:06;;;;;;;;;;;22.90;99.90;;;;;;5048702;28;20017;-78
2022/08/25 09:19:35;;;;;;;;;;;23.00;99.90;;;;;;5047605;28;19913;-73
2022/08/25 09:22:03;;;;;;;;;;;23.10;99.90;;;;;;5048187;28;19924;-79
2022/08/25 09:24:40;;;;;;;;;;;23.20;99.90;;;;;;5048867;28;20352;-78
2022/08/25 09:27:05;;;;;;;;;;;23.30;99.90;;;;;;5054435;28;19917;-77
2022/08/25 09:29:41;;;;;;;;;;;23.30;99.90;;;;;;5043190;28;20043;-77
2022/08/25 09:32:07;;;;;;;;;;;23.20;99.90;;;;;;5049546;28;20284;-80
2022/08/25 09:34:33;;;;;;;;;;;23.20;99.90;;;;;;5047511;28;19917;-78
2022/08/25 09:37:00;;;;;;;;;;;23.20;99.90;;;;;;5047145;28;20337;-77
2022/08/25 09:39:25;;;;;;;;;;;23.20;99.90;;;;;;5046551;28;19921;-78
2022/08/25 09:41:54;;;;;;;;;;;23.20;99.90;;;;;;5048530;28;19966;-72
2022/08/25 09:44:20;;;;;;;;;;;23.10;99.90;;;;;;5049004;28;20391;-78
2022/08/25 09:47:04;;;;;;;;;;;23.20;99.90;;;;;;5044350;28;19921;-79
2022/08/25 09:49:36;;;;;;;;;;;23.20;99.90;;;;;;5044248;28;19923;-78
2022/08/25 09:52:20;;;;;;;;;;;23.30;99.90;;;;;;5046935;28;19920;-74
2022/08/25 09:54:48;;;;;;;;;;;23.40;99.90;;;;;;5052973;28;19924;-74
2022/08/25 09:57:46;;;;;;;;;;;23.50;99.90;;;;;;5050287;28;19916;-73
2022/08/25 10:00:17;;;;;;;;;;;23.60;99.90;;;;;;5045368;28;19947;-78
2022/08/25 10:02:44;;;;;;;;;;;23.80;99.90;;;;;;5040498;28;19912;-73
2022/08/25 10:05:23;;;;;;;;;;;23.90;99.90;;;;;;5043691;28;19924;-72
2022/08/25 10:07:54;;;;;;;;;;;24.20;99.90;;;;;;5045936;28;19913;-74
2022/08/25 10:10:33;;;;;;;;;;;24.40;99.90;;;;;;5047473;28;19967;-79
2022/08/25 10:13:00;;;;;;;;;;;24.70;99.90;;;;;;5046746;28;19913;-79
2022/08/25 10:15:33;;;;;;;;;;;24.90;99.90;;;;;;5046461;28;20387;-80
2022/08/25 10:18:19;;;;;;;;;;;25.10;99.90;;;;;;5045742;28;19948;-74
2022/08/25 10:20:59;;;;;;;;;;;25.30;99.90;;;;;;5047286;28;19991;-74
2022/08/25 10:23:25;;;;;;;;;;;25.50;99.90;;;;;;5047012;28;19912;-80
2022/08/25 10:25:51;;;;;;;;;;;25.70;99.90;;;;;;5042689;28;19921;-81
2022/08/25 10:28:28;;;;;;;;;;;25.60;99.90;;;;;;5047658;28;19970;-83
2022/08/25 10:31:12;;;;;;;;;;;25.60;99.90;;;;;;5045290;28;19925;-74
2022/08/25 10:33:41;;;;;;;;;;;25.80;99.90;;;;;;5050250;28;19968;-74
2022/08/25 10:36:15;;;;;;;;;;;25.80;99.90;;;;;;5049426;28;20383;-80
2022/08/25 10:38:50;;;;;;;;;;;26.00;99.90;;;;;;5046894;28;19975;-83
2022/08/25 10:41:34;;;;;;;;;;;26.10;99.90;;;;;;5046846;28;19913;-73
2022/08/25 10:44:03;;;;;;;;;;;25.90;99.90;;;;;;5041527;28;19941;-74
2022/08/25 10:46:38;;;;;;;;;;;26.00;99.90;;;;;;5051777;28;20403;-74
2022/08/25 10:49:17;;;;;;;;;;;26.00;99.90;;;;;;5046155;28;20414;-83
2022/08/25 10:51:53;;;;;;;;;;;26.00;99.90;;;;;;5045702;28;19942;-82
2022/08/25 10:54:19;;;;;;;;;;;26.00;99.90;;;;;;5047011;28;19921;-82
2022/08/25 10:57:03;;;;;;;;;;;26.10;99.90;;;;;;5046318;28;20458;-74
2022/08/25 10:59:45;;;;;;;;;;;26.10;99.90;;;;;;5041759;28;19916;-74
2022/08/25 11:02:41;;;;;;;;;;;26.20;99.90;;;;;;5040100;28;20414;-74
2022/08/25 11:05:29;;;;;;;;;;;26.50;99.90;;;;;;5062774;28;20382;-74
2022/08/25 11:08:04;;;;;;;;;;;27.00;99.90;;;;;;5046003;28;19919;-83
2022/08/25 11:10:47;;;;;;;;;;;27.70;99.90;;;;;;5055324;28;19916;-74
2022/08/25 11:13:16;;;;;;;;;;;28.40;99.90;;;;;;5045963;28;19924;-74
2022/08/25 11:15:55;;;;;;;;;;;29.00;99.90;;;;;;5048570;28;19920;-83
2022/08/25 11:18:23;;;;;;;;;;;28.70;99.90;;;;;;5041952;28;19932;-86
2022/08/25 11:21:09;;;;;;;;;;;28.00;99.90;;;;;;5050073;28;20019;-76
2022/08/25 11:23:45;;;;;;;;;;;27.60;99.90;;;;;;5044741;28;19912;-76
2022/08/25 11:26:12;;;;;;;;;;;27.10;99.90;;;;;;5046584;28;20542;-76
2022/08/25 11:28:52;;;;;;;;;;;26.90;99.90;;;;;;5051558;28;20252;-86
2022/08/25 11:31:19;;;;;;;;;;;26.70;99.90;;;;;;5048966;28;19936;-86
2022/08/25 11:33:44;;;;;;;;;;;26.50;99.90;;;;;;5041875;28;19913;-84
2022/08/25 11:36:31;;;;;;;;;;;26.30;99.90;;;;;;5040045;28;19913;-76
2022/08/25 11:38:57;;;;;;;;;;;26.20;99.90;;;;;;5047093;28;19924;-77
2022/08/25 11:41:28;;;;;;;;;;;26.10;99.90;;;;;;5044856;28;19913;-87
2022/08/25 11:44:08;;;;;;;;;;;26.10;99.90;;;;;;5053876;28;20334;-78
2022/08/25 11:46:44;;;;;;;;;;;26.00;99.90;;;;;;5052268;28;19952;-87
2022/08/25 11:49:20;;;;;;;;;;;26.10;99.90;;;;;;5059929;28;20315;-76
2022/08/25 11:51:47;;;;;;;;;;;26.10;99.90;;;;;;5049442;28;19919;-78
2022/08/25 11:54:12;;;;;;;;;;;26.30;99.90;;;;;;5048785;28;19924;-85
2022/08/25 11:56:40;;;;;;;;;;;26.40;99.90;;;;;;5051419;28;20216;-85
2022/08/25 11:59:06;;;;;;;;;;;26.50;99.90;;;;;;5057190;28;19920;-86
2022/08/25 12:01:37;;;;;;;;;;;26.50;99.90;;;;;;5056766;28;19916;-76
2022/08/25 12:04:21;;;;;;;;;;;26.70;99.90;;;;;;5051163;28;20404;-79
2022/08/25 12:07:05;;;;;;;;;;;26.90;99.90;;;;;;5049380;28;20476;-80
2022/08/25 12:09:53;;;;;;;;;;;27.00;99.90;;;;;;5066735;28;19964;-78
2022/08/25 12:12:38;;;;;;;;;;;27.10;99.90;;;;;;5058060;28;19921;-83
2022/08/25 12:15:19;;;;;;;;;;;27.10;99.90;;;;;;5059729;28;19920;-86
2022/08/25 12:18:04;;;;;;;;;;;27.20;99.90;;;;;;5057777;28;19913;-84
2022/08/25 12:20:49;;;;;;;;;;;27.10;99.90;;;;;;5063411;28;19916;-76
2022/08/25 12:23:14;;;;;;;;;;;27.20;99.90;;;;;;5054828;28;19913;-79
2022/08/25 12:25:44;;;;;;;;;;;27.00;99.90;;;;;;5060620;28;19913;-85
2022/08/25 12:28:09;;;;;;;;;;;26.90;99.90;;;;;;5061930;28;19916;-77
2022/08/25 12:30:44;;;;;;;;;;;26.90;99.90;;;;;;5059605;28;19925;-78
2022/08/25 12:33:13;;;;;;;;;;;26.90;99.90;;;;;;5062929;28;20012;-76
2022/08/25 12:35:52;;;;;;;;;;;26.70;99.90;;;;;;5060798;28;19975;-85
2022/08/25 12:38:26;;;;;;;;;;;26.80;99.90;;;;;;5060381;28;19917;-88
2022/08/25 12:40:56;;;;;;;;;;;26.90;99.90;;;;;;5064588;28;19994;-76
2022/08/25 12:43:30;;;;;;;;;;;27.00;99.90;;;;;;5056597;28;19921;-76
2022/08/25 12:46:14;;;;;;;;;;;27.10;99.90;;;;;;5053960;28;19913;-76
2022/08/25 12:48:52;;;;;;;;;;;26.80;99.90;;;;;;5059620;28;19913;-85
2022/08/25 12:51:19;;;;;;;;;;;26.70;99.90;;;;;;5059521;28;19976;-85
2022/08/25 12:53:46;;;;;;;;;;;26.60;99.90;;;;;;5061675;28;19909;-76
2022/08/25 12:56:31;;;;;;;;;;;26.60;99.90;;;;;;5046921;28;19920;-76
2022/08/25 12:59:14;;;;;;;;;;;26.70;99.90;;;;;;5048797;28;19917;-75
2022/08/25 13:01:45;;;;;;;;;;;26.90;99.90;;;;;;5054404;28;19916;-75
2022/08/25 13:04:34;;;;;;;;;;;27.30;99.90;;;;;;5053927;28;20517;-83
2022/08/25 13:07:18;;;;;;;;;;;27.80;99.90;;;;;;5050806;28;19920;-75
2022/08/25 13:09:59;;;;;;;;;;;28.40;99.90;;;;;;5060403;28;19916;-75
2022/08/25 13:12:31;;;;;;;;;;;29.00;99.90;;;;;;5058210;28;19913;-87
2022/08/25 13:14:56;;;;;;;;;;;29.20;99.90;;;;;;5042188;28;20439;-74
2022/08/25 13:17:30;;;;;;;;;;;29.50;99.90;;;;;;5049666;28;19916;-75
2022/08/25 13:20:12;;;;;;;;;;;29.30;99.90;;;;;;5048665;28;19921;-82
2022/08/25 13:22:37;;;;;;;;;;;29.40;99.90;;;;;;5048680;28;19909;-75
2022/08/25 13:25:04;;;;;;;;;;;29.30;99.90;;;;;;5053123;28;20426;-85
2022/08/25 13:27:31;;;;;;;;;;;29.50;99.90;;;;;;5055350;28;19931;-84
2022/08/25 13:29:58;;;;;;;;;;;29.40;99.90;;;;;;5045917;28;20349;-83
2022/08/25 13:32:27;;;;;;;;;;;29.10;99.90;;;;;;5046600;28;19952;-83
2022/08/25 13:35:06;;;;;;;;;;;29.20;99.90;;;;;;5046072;28;19943;-75
2022/08/25 13:37:32;;;;;;;;;;;29.00;99.90;;;;;;5047803;28;19921;-81
2022/08/25 13:40:08;;;;;;;;;;;29.10;99.90;;;;;;5050995;28;19958;-75
2022/08/25 13:42:35;;;;;;;;;;;29.50;99.90;;;;;;5045079;28;19912;-84
2022/08/25 13:45:04;;;;;;;;;;;29.90;99.90;;;;;;5054066;28;19956;-83
2022/08/25 13:47:34;;;;;;;;;;;29.80;99.90;;;;;;5052895;28;19912;-74
2022/08/25 13:50:19;;;;;;;;;;;29.40;99.90;;;;;;5053238;28;20379;-82
2022/08/25 13:53:04;;;;;;;;;;;29.00;99.90;;;;;;5048144;28;19917;-84
2022/08/25 13:55:50;;;;;;;;;;;28.70;99.90;;;;;;5052591;28;20367;-82
2022/08/25 13:58:35;;;;;;;;;;;28.90;99.90;;;;;;5055750;28;20368;-83
2022/08/25 14:01:00;;;;;;;;;;;28.50;99.90;;;;;;5046595;28;20265;-74
2022/08/25 14:03:30;;;;;;;;;;;28.40;99.90;;;;;;5048040;28;19924;-83
2022/08/25 14:06:05;;;;;;;;;;;28.50;99.90;;;;;;5049535;28;19974;-81
2022/08/25 14:08:33;;;;;;;;;;;28.40;99.90;;;;;;5049378;28;19916;-82
2022/08/25 14:11:12;;;;;;;;;;;28.60;99.90;;;;;;5056412;28;19924;-80
2022/08/25 14:13:38;;;;;;;;;;;28.40;99.90;;;;;;5044176;28;19913;-74
2022/08/25 14:16:22;;;;;;;;;;;28.30;99.90;;;;;;5049044;28;20372;-83
2022/08/25 14:18:49;;;;;;;;;;;28.50;99.90;;;;;;5052042;28;19920;-84
2022/08/25 14:21:16;;;;;;;;;;;28.80;99.90;;;;;;5053426;28;19923;-85
2022/08/25 14:23:42;;;;;;;;;;;29.20;99.90;;;;;;5051749;28;19974;-83
2022/08/25 14:26:07;;;;;;;;;;;29.50;99.90;;;;;;5050824;28;19916;-76
2022/08/25 14:28:33;;;;;;;;;;;30.40;99.90;;;;;;5051844;28;19944;-76
2022/08/25 14:31:05;;;;;;;;;;;30.60;99.60;;;;;;5051585;28;19924;-75
2022/08/25 14:33:34;;;;;;;;;;;30.80;99.90;;;;;;5044909;28;20332;-82
2022/08/25 14:36:01;;;;;;;;;;;29.70;99.90;;;;;;5051516;28;19972;-84
2022/08/25 14:38:27;;;;;;;;;;;29.50;99.90;;;;;;5048861;28;20288;-76